Time;durP1;ratioP1;P1;durP2;ratioP2;P2;SDS_P1;SDS_P2;PMS_P1;PMS_P2;Temp;Humidity;BMP_temperature;BMP_pressure;BME280_temperature;BME280_humidity;BME280_pressure;Samples;Min_cycle;Max_cycle;Signal;HPM_P1;HPM_P2
2022/06/28 00:00:50;;;;;;;4.60;3.60;;;;;;;26.95;49.73;99149.94;5163760;27;20066;-73
2022/06/28 00:03:18;;;;;;;8.52;3.88;;;;;;;26.83;50.12;99129.72;5163732;27;20190;-73
2022/06/28 00:05:45;;;;;;;5.15;3.55;;;;;;;26.77;50.16;99115.03;5163839;27;20101;-73
2022/06/28 00:08:12;;;;;;;5.03;3.03;;;;;;;26.77;49.86;99122.34;5163702;27;20051;-73
2022/06/28 00:10:41;;;;;;;4.78;3.17;;;;;;;26.73;50.14;99121.06;5163623;27;20055;-73
2022/06/28 00:13:09;;;;;;;6.57;4.00;;;;;;;26.70;50.27;99141.31;5163161;27;20054;-73
2022/06/28 00:18:21;;;;;;;10.38;3.55;;;;;;;26.41;51.14;99150.38;5163389;27;20057;-73
2022/06/28 00:20:48;;;;;;;8.60;4.40;;;;;;;26.37;51.14;99161.81;5163287;27;20062;-72
2022/06/28 00:23:16;;;;;;;7.32;3.83;;;;;;;26.36;51.24;99155.53;5162994;27;20062;-72
2022/06/28 00:25:44;;;;;;;5.70;4.13;;;;;;;26.23;51.54;99180.66;5163391;27;20054;-72
2022/06/28 00:28:12;;;;;;;4.07;3.30;;;;;;;26.13;51.77;99185.53;5161874;27;20051;-72
2022/06/28 00:30:39;;;;;;;7.95;3.88;;;;;;;25.94;52.56;99175.22;5149256;27;20207;-72
2022/06/28 00:33:07;;;;;;;5.30;4.07;;;;;;;25.86;52.84;99176.13;5149505;27;20066;-72
2022/06/28 00:35:34;;;;;;;7.32;3.70;;;;;;;25.72;53.41;99182.41;5149441;27;20055;-72
2022/06/28 00:38:01;;;;;;;4.90;3.05;;;;;;;25.64;53.27;99193.34;5149220;27;20208;-72
2022/06/28 00:40:29;;;;;;;6.18;3.53;;;;;;;25.62;53.40;99175.56;5149450;27;20062;-72
2022/06/28 00:42:58;;;;;;;4.57;3.22;;;;;;;25.50;53.77;99175.16;5148819;27;20066;-73
2022/06/28 00:45:26;;;;;;;3.72;3.17;;;;;;;25.39;54.17;99172.91;5149264;27;20058;-72
2022/06/28 00:47:54;;;;;;;5.20;3.53;;;;;;;25.39;54.35;99170.19;5149145;27;20047;-72
2022/06/28 00:50:22;;;;;;;5.40;3.58;;;;;;;25.35;54.96;99194.13;5149049;27;20054;-71
2022/06/28 00:53:00;;;;;;;4.15;3.20;;;;;;;25.06;56.23;99181.28;5149091;27;20311;-72
2022/06/28 00:55:27;;;;;;;4.25;3.10;;;;;;;24.89;56.37;99172.41;5148841;27;20215;-71
2022/06/28 00:57:54;;;;;;;4.80;3.00;;;;;;;24.89;56.30;99156.13;5148950;27;20043;-72
2022/06/28 01:00:24;;;;;;;4.05;2.60;;;;;;;24.40;57.10;99125.78;5148759;27;20055;-72
2022/06/28 01:02:51;;;;;;;4.22;2.88;;;;;;;24.22;56.87;99123.34;5148876;27;20311;-72
2022/06/28 01:05:20;;;;;;;3.05;2.55;;;;;;;24.61;56.39;99199.13;5148485;27;20047;-72
2022/06/28 01:07:48;;;;;;;4.30;3.28;;;;;;;24.44;56.47;99165.03;5148366;27;20215;-72
2022/06/28 01:10:15;;;;;;;4.45;3.40;;;;;;;24.63;56.28;99197.09;5148464;27;20207;-72
2022/06/28 01:12:43;;;;;;;3.50;2.65;;;;;;;24.53;56.48;99176.66;5148858;27;20069;-72
2022/06/28 01:15:11;;;;;;;4.22;3.25;;;;;;;24.47;56.74;99183.66;5148279;27;20066;-72
2022/06/28 01:17:39;;;;;;;4.78;2.90;;;;;;;24.50;56.87;99180.56;5148269;27;20059;-72
2022/06/28 01:20:09;;;;;;;3.72;2.58;;;;;;;24.26;56.76;99151.75;5148461;27;20062;-72
2022/06/28 01:22:40;;;;;;;5.22;2.95;;;;;;;24.21;57.69;99147.91;5148248;27;20051;-72
2022/06/28 01:25:09;;;;;;;5.72;2.80;;;;;;;24.20;57.39;99160.59;5148383;27;20055;-72
2022/06/28 01:27:37;;;;;;;5.13;2.78;;;;;;;23.75;58.18;99080.06;5148232;27;20065;-72
2022/06/28 01:30:07;;;;;;;4.35;2.65;;;;;;;23.98;58.95;99161.34;5148195;27;20307;-72
2022/06/28 01:32:35;;;;;;;4.13;3.30;;;;;;;23.65;59.87;99128.13;5148065;27;20303;-72
2022/06/28 01:35:03;;;;;;;4.70;2.80;;;;;;;23.83;60.26;99163.06;5148185;27;20058;-72
2022/06/28 01:37:31;;;;;;;3.97;2.72;;;;;;;23.73;60.97;99176.78;5148226;27;20062;-72
2022/06/28 01:40:00;;;;;;;3.90;3.30;;;;;;;23.68;60.88;99195.41;5147603;27;20055;-72
2022/06/28 01:42:29;;;;;;;5.32;2.90;;;;;;;23.62;61.03;99194.22;5147574;27;20050;-72
2022/06/28 01:44:57;;;;;;;6.47;3.35;;;;;;;23.51;60.40;99207.28;5147980;27;20062;-71
2022/06/28 01:47:26;;;;;;;4.63;3.10;;;;;;;23.54;60.51;99233.97;5147902;27;20051;-72
2022/06/28 01:49:54;;;;;;;5.32;3.40;;;;;;;23.53;60.46;99249.34;5147977;27;20116;-71
2022/06/28 01:52:22;;;;;;;4.28;3.08;;;;;;;23.59;60.79;99239.72;5147853;27;20051;-71
2022/06/28 01:54:49;;;;;;;3.45;2.92;;;;;;;23.55;60.65;99268.97;5147632;27;20334;-72
2022/06/28 01:57:18;;;;;;;5.28;2.97;;;;;;;23.32;60.67;99241.75;5129417;27;20211;-72
2022/06/28 01:59:45;;;;;;;4.93;2.63;;;;;;;23.50;60.70;99267.78;5147220;27;20055;-71
2022/06/28 02:02:12;;;;;;;3.33;2.72;;;;;;;23.42;60.24;99275.91;5147576;27;20315;-72
2022/06/28 02:04:39;;;;;;;4.10;2.60;;;;;;;23.41;60.63;99276.91;5147352;27;20055;-72
2022/06/28 02:07:06;;;;;;;3.92;3.20;;;;;;;23.35;60.54;99262.22;5147491;27;20260;-72
2022/06/28 02:09:34;;;;;;;3.25;2.38;;;;;;;23.37;60.70;99273.69;5147415;27;20096;-72
2022/06/28 02:12:01;;;;;;;5.28;2.92;;;;;;;23.36;60.14;99277.41;5147660;27;20055;-72
2022/06/28 02:14:29;;;;;;;4.78;2.38;;;;;;;23.37;60.53;99271.00;5147370;27;20315;-72
2022/06/28 02:16:57;;;;;;;2.95;2.10;;;;;;;23.32;60.65;99284.19;5147249;27;20178;-72
2022/06/28 02:19:25;;;;;;;4.00;2.30;;;;;;;23.31;60.20;99268.97;5147233;27;20047;-72
2022/06/28 02:21:52;;;;;;;2.90;2.40;;;;;;;23.25;60.61;99265.03;5146946;27;20063;-71
2022/06/28 02:24:20;;;;;;;4.00;2.40;;;;;;;23.23;60.48;99253.56;5147150;27;20055;-72
2022/06/28 02:26:47;;;;;;;2.78;2.10;;;;;;;23.39;60.02;99254.59;5147062;27;20104;-72
2022/06/28 02:29:14;;;;;;;3.00;2.10;;;;;;;23.33;60.96;99270.50;5146796;27;20058;-72
2022/06/28 02:31:42;;;;;;;2.90;2.15;;;;;;;23.40;60.82;99267.09;5146721;27;20058;-72
2022/06/28 02:40:21;;;;;;;4.78;2.80;;;;;;;23.45;60.43;99270.16;5146638;27;20050;-72
2022/06/28 02:42:26;;;;;;;2.63;2.00;;;;;;;23.36;60.83;99275.56;5147054;27;20241;-71
2022/06/28 02:44:53;;;;;;;5.30;3.40;;;;;;;23.42;60.50;99275.91;5146801;27;20127;-72
2022/06/28 02:47:22;;;;;;;4.45;2.70;;;;;;;23.58;59.49;99276.75;5147058;27;20103;-72
2022/06/28 02:49:49;;;;;;;7.47;3.55;;;;;;;23.03;59.69;99157.56;5146633;27;20059;-72
2022/06/28 02:52:16;;;;;;;5.75;3.92;;;;;;;23.53;60.48;99259.34;5146328;27;20237;-72
2022/06/28 02:54:43;;;;;;;5.05;3.40;;;;;;;23.60;60.18;99272.00;5146631;27;20100;-72
2022/06/28 02:57:11;;;;;;;3.88;2.42;;;;;;;23.60;61.31;99300.91;5146682;27;20375;-72
2022/06/28 02:59:38;;;;;;;5.18;2.30;;;;;;;23.59;60.79;99312.75;5146413;27;20103;-72
2022/06/28 03:02:05;;;;;;;4.60;2.45;;;;;;;23.57;61.09;99277.75;5146805;27;20055;-72
2022/06/28 03:04:34;;;;;;;4.90;2.60;;;;;;;23.51;63.29;99237.03;5146559;27;20258;-72
2022/06/28 03:07:01;;;;;;;4.05;2.70;;;;;;;23.25;62.19;99183.94;5146769;27;20092;-72
2022/06/28 03:09:28;;;;;;;3.38;2.40;;;;;;;23.47;63.21;99193.25;5146686;27;20100;-72
2022/06/28 03:11:55;;;;;;;3.17;2.60;;;;;;;23.20;63.83;99136.78;5147202;27;20104;-72
2022/06/28 03:14:23;;;;;;;4.35;3.90;;;;;;;23.48;63.35;99145.41;5146040;27;20054;-72
2022/06/28 03:16:50;;;;;;;6.93;5.45;;;;;;;23.39;63.66;99127.50;5146102;28;21306;-72
2022/06/28 03:19:17;;;;;;;10.10;8.35;;;;;;;23.50;63.60;99113.63;5145886;28;20112;-72
2022/06/28 03:21:46;;;;;;;8.13;5.90;;;;;;;23.59;62.55;99094.50;5146127;28;20104;-72
2022/06/28 03:24:13;;;;;;;5.07;3.95;;;;;;;23.59;63.08;99090.94;5146547;28;20108;-71
2022/06/28 03:26:40;;;;;;;4.28;3.50;;;;;;;23.71;63.06;99129.28;5146331;28;20058;-72
2022/06/28 03:29:07;;;;;;;9.13;4.07;;;;;;;23.65;63.25;99157.88;5145835;28;20051;-71
2022/06/28 03:31:34;;;;;;;8.32;5.60;;;;;;;23.68;63.23;99163.78;5145806;28;20055;-72
2022/06/28 03:34:02;;;;;;;8.07;6.28;;;;;;;23.71;62.73;99169.88;5146045;28;20104;-72
2022/06/28 03:36:29;;;;;;;8.48;5.82;;;;;;;23.61;63.19;99153.84;5146204;28;20054;-72
2022/06/28 03:38:58;;;;;;;5.22;4.00;;;;;;;23.71;63.24;99159.03;5146109;28;20310;-71
2022/06/28 03:41:25;;;;;;;5.15;3.65;;;;;;;23.75;62.51;99171.22;5127980;28;20054;-71
2022/06/28 03:43:53;;;;;;;4.82;3.13;;;;;;;23.67;62.17;99199.13;5145883;28;20112;-72
2022/06/28 03:46:21;;;;;;;4.50;2.70;;;;;;;23.67;61.49;99199.13;5145918;28;20311;-72
2022/06/28 03:48:48;;;;;;;4.03;2.47;;;;;;;23.64;61.22;99208.44;5146105;28;20055;-72
2022/06/28 03:51:16;;;;;;;4.05;2.70;;;;;;;23.69;60.98;99227.69;5145710;28;20051;-72
2022/06/28 03:53:44;;;;;;;4.30;2.70;;;;;;;23.65;60.79;99241.75;5145810;28;20055;-72
2022/06/28 03:56:12;;;;;;;3.50;2.60;;;;;;;23.58;61.18;99238.03;5145690;28;20115;-72
2022/06/28 03:58:40;;;;;;;3.22;2.38;;;;;;;23.49;61.36;99266.94;5145585;28;20077;-71
2022/06/28 04:01:07;;;;;;;3.42;2.40;;;;;;;23.35;62.09;99263.06;5145949;28;20100;-72
2022/06/28 04:03:35;;;;;;;5.47;2.75;;;;;;;23.36;62.17;99280.97;5146397;27;20259;-72
2022/06/28 04:06:02;;;;;;;2.78;1.95;;;;;;;23.39;62.05;99290.59;5149715;27;20103;-72
2022/06/28 04:08:30;;;;;;;3.55;2.65;;;;;;;23.29;62.12;99300.72;5149905;27;20371;-72
2022/06/28 04:13:40;;;;;;;5.93;2.20;;;;;;;23.27;62.17;99311.72;5149580;27;20047;-72
2022/06/28 04:16:08;;;;;;;2.75;1.98;;;;;;;23.30;61.60;99311.38;5149357;27;20116;-71
2022/06/28 04:18:35;;;;;;;4.05;2.20;;;;;;;23.25;62.16;99331.78;5149061;27;20119;-72
2022/06/28 04:21:03;;;;;;;3.10;2.05;;;;;;;23.29;62.24;99323.22;5149513;27;20050;-72
2022/06/28 04:23:30;;;;;;;3.78;2.10;;;;;;;23.27;61.95;99330.66;5149664;27;20108;-72
2022/06/28 04:25:57;;;;;;;3.38;2.25;;;;;;;23.29;61.63;99327.78;5149376;27;20340;-72
2022/06/28 04:28:25;;;;;;;3.15;1.98;;;;;;;23.26;61.61;99339.75;5149570;27;20192;-71
2022/06/28 04:30:53;;;;;;;4.35;1.85;;;;;;;23.13;61.84;99347.47;5149665;27;20119;-72
2022/06/28 04:33:20;;;;;;;2.80;1.90;;;;;;;23.17;61.76;99346.13;5149128;27;20092;-71
2022/06/28 04:35:48;;;;;;;2.60;1.92;;;;;;;23.07;62.36;99342.72;5149312;27;20096;-72
2022/06/28 04:38:15;;;;;;;4.28;2.42;;;;;;;22.70;61.98;99295.31;5149326;27;20095;-72
2022/06/28 04:40:42;;;;;;;3.30;2.10;;;;;;;22.97;62.12;99339.31;5149085;27;20059;-72
2022/06/28 04:43:10;;;;;;;3.38;2.30;;;;;;;23.02;61.75;99347.78;5149011;27;20119;-72
2022/06/28 04:45:37;;;;;;;3.63;2.35;;;;;;;22.97;61.83;99336.63;5149085;27;20104;-72
2022/06/28 04:48:06;;;;;;;2.88;1.80;;;;;;;23.07;61.50;99336.47;5148900;27;20099;-72
2022/06/28 04:50:34;;;;;;;3.65;1.83;;;;;;;22.66;61.45;99279.59;5148786;27;20046;-72
2022/06/28 04:53:02;;;;;;;2.72;1.80;;;;;;;23.08;61.18;99330.91;5148994;27;20237;-72
2022/06/28 04:55:29;;;;;;;5.80;1.95;;;;;;;23.00;61.22;99329.03;5148674;27;20051;-72
2022/06/28 04:57:56;;;;;;;3.97;2.00;;;;;;;22.99;61.12;99335.44;5148856;27;20104;-72
2022/06/28 05:00:23;;;;;;;2.88;1.58;;;;;;;22.89;61.22;99344.69;5148294;27;20054;-71
2022/06/28 05:02:50;;;;;;;2.72;1.98;;;;;;;22.92;61.11;99336.25;5148647;27;20112;-71
2022/06/28 05:05:19;;;;;;;2.80;2.20;;;;;;;22.89;60.74;99331.19;5148338;27;20080;-72
2022/06/28 05:07:47;;;;;;;3.95;1.92;;;;;;;22.70;60.75;99311.53;5148898;27;20050;-72
2022/06/28 05:10:14;;;;;;;2.92;2.08;;;;;;;22.50;61.08;99293.84;5148747;27;20059;-72
2022/06/28 05:12:41;;;;;;;3.42;2.03;;;;;;;22.91;60.77;99335.41;5148203;27;20055;-71
2022/06/28 05:15:09;;;;;;;3.78;2.10;;;;;;;22.89;61.09;99361.75;5148505;27;20084;-72
2022/06/28 05:17:37;;;;;;;5.60;2.08;;;;;;;22.82;60.90;99349.06;5147974;27;20096;-72
2022/06/28 05:20:05;;;;;;;3.17;1.65;;;;;;;22.96;60.72;99359.25;5148521;27;20306;-72
2022/06/28 05:22:33;;;;;;;4.57;2.00;;;;;;;22.98;60.72;99366.19;5148401;27;20111;-72
2022/06/28 05:25:01;;;;;;;4.38;2.90;;;;;;;22.99;60.57;99370.56;5148446;27;20059;-72
2022/06/28 05:27:28;;;;;;;6.32;4.53;;;;;;;23.02;60.72;99369.41;5147795;27;20054;-72
2022/06/28 05:29:55;;;;;;;5.57;4.13;;;;;;;23.12;60.19;99378.22;5148040;27;20055;-71
2022/06/28 05:32:22;;;;;;;4.28;2.47;;;;;;;22.58;60.42;99298.47;5148044;27;20055;-71
2022/06/28 05:34:50;;;;;;;3.35;2.30;;;;;;;23.10;60.25;99363.19;5148293;27;20058;-72
2022/06/28 05:37:17;;;;;;;3.15;1.98;;;;;;;23.03;60.17;99357.59;5148164;27;20244;-72
2022/06/28 05:39:45;;;;;;;5.07;2.67;;;;;;;23.06;60.32;99365.38;5147849;27;20055;-72
2022/06/28 05:42:14;;;;;;;3.22;2.15;;;;;;;23.07;59.92;99369.75;5147784;27;20055;-72
2022/06/28 05:44:41;;;;;;;3.97;2.10;;;;;;;23.08;60.00;99381.41;5148038;27;20100;-72
2022/06/28 05:47:10;;;;;;;3.38;2.10;;;;;;;23.05;59.79;99382.59;5147348;27;20055;-72
2022/06/28 05:49:38;;;;;;;3.30;2.00;;;;;;;23.06;59.86;99389.69;5148016;27;20120;-72
2022/06/28 05:52:06;;;;;;;4.15;2.67;;;;;;;23.11;59.52;99392.75;5147749;27;20084;-71
2022/06/28 05:54:33;;;;;;;4.00;2.40;;;;;;;23.19;59.44;99400.03;5147490;27;20055;-72
2022/06/28 05:57:02;;;;;;;4.00;2.90;;;;;;;22.98;59.22;99379.69;5147626;27;20055;-72
2022/06/28 05:59:32;;;;;;;3.55;1.98;;;;;;;23.10;59.05;99395.63;5147297;27;20104;-71
2022/06/28 06:01:59;;;;;;;2.75;1.80;;;;;;;23.15;59.09;99423.84;5147650;27;20112;-71
2022/06/28 06:04:26;;;;;;;2.88;1.92;;;;;;;23.15;59.15;99417.59;5147046;27;20100;-72
2022/06/28 06:06:54;;;;;;;4.63;2.30;;;;;;;23.18;59.02;99425.38;5146892;27;20054;-72
2022/06/28 06:09:22;;;;;;;3.55;2.10;;;;;;;22.79;59.01;99366.44;5147300;27;20100;-72
2022/06/28 06:11:49;;;;;;;3.97;2.40;;;;;;;23.24;58.95;99440.94;5147248;27;20112;-72
2022/06/28 06:14:18;;;;;;;5.57;4.13;;;;;;;23.34;59.05;99461.47;5147006;27;20063;-72
2022/06/28 06:16:45;;;;;;;5.07;4.20;;;;;;;23.37;58.75;99460.28;5147157;27;20050;-72
2022/06/28 06:19:12;;;;;;;5.65;3.75;;;;;;;23.40;58.78;99469.94;5147180;27;20055;-72
2022/06/28 06:21:40;;;;;;;5.10;3.05;;;;;;;23.40;58.61;99478.91;5146736;27;20051;-71
2022/06/28 06:24:07;;;;;;;4.05;2.53;;;;;;;23.46;58.60;99486.34;5147101;27;20055;-71
2022/06/28 06:26:34;;;;;;;3.42;2.30;;;;;;;23.50;58.17;99484.16;5146881;27;20116;-72
2022/06/28 06:29:02;;;;;;;2.47;1.73;;;;;;;23.58;58.17;99484.19;5147076;27;20079;-71
2022/06/28 06:31:30;;;;;;;3.53;1.90;;;;;;;23.57;57.77;99480.66;5146590;27;20051;-71
2022/06/28 06:33:57;;;;;;;4.68;1.80;;;;;;;23.22;57.53;99419.47;5146514;27;20069;-72
2022/06/28 06:36:25;;;;;;;4.25;2.25;;;;;;;23.51;57.56;99481.31;5147052;27;20167;-72
2022/06/28 06:38:53;;;;;;;3.20;2.03;;;;;;;23.50;57.45;99465.25;5146646;27;20099;-72
2022/06/28 06:41:20;;;;;;;3.88;2.65;;;;;;;23.54;57.55;99502.63;5146512;27;20055;-72
2022/06/28 06:43:47;;;;;;;4.22;2.33;;;;;;;23.64;57.48;99457.34;5146331;27;20054;-72
2022/06/28 06:46:14;;;;;;;4.65;2.25;;;;;;;23.71;57.77;99462.91;5146127;27;20054;-72
2022/06/28 06:48:43;;;;;;;3.20;2.42;;;;;;;23.82;57.46;99453.63;5146308;27;20059;-72
2022/06/28 06:51:11;;;;;;;5.60;2.58;;;;;;;23.89;57.62;99460.09;5146403;27;20161;-72
2022/06/28 06:53:38;;;;;;;3.10;2.25;;;;;;;23.86;57.11;99469.38;5146357;27;20059;-72
2022/06/28 06:56:06;;;;;;;3.90;2.30;;;;;;;23.92;56.89;99475.97;5146168;27;20076;-72
2022/06/28 06:58:33;;;;;;;3.95;2.15;;;;;;;23.95;56.78;99467.53;5146330;27;20112;-72
2022/06/28 07:01:01;;;;;;;3.47;2.22;;;;;;;24.00;56.53;99476.03;5146441;27;20237;-72
2022/06/28 07:03:28;;;;;;;3.10;2.00;;;;;;;24.09;56.53;99476.88;5145904;27;20058;-72
2022/06/28 07:05:56;;;;;;;6.82;3.40;;;;;;;24.13;55.63;99481.78;5146228;27;20119;-72
2022/06/28 07:08:24;;;;;;;3.90;2.55;;;;;;;24.12;56.25;99473.84;5145924;27;20050;-72
2022/06/28 07:10:51;;;;;;;5.25;3.90;;;;;;;24.25;55.81;99466.06;5145935;27;20245;-72
2022/06/28 07:13:18;;;;;;;5.03;3.83;;;;;;;24.33;55.39;99476.88;5146097;27;20107;-72
2022/06/28 07:15:45;;;;;;;3.20;2.60;;;;;;;24.23;55.37;99478.91;5146236;27;20185;-72
2022/06/28 07:18:12;;;;;;;5.82;4.20;;;;;;;24.35;55.32;99476.72;5145943;28;20108;-72
2022/06/28 07:20:40;;;;;;;5.07;3.22;;;;;;;24.36;55.46;99489.25;5146068;28;20245;-71
2022/06/28 07:23:08;;;;;;;3.30;2.78;;;;;;;24.48;55.00;99480.59;5146005;28;20104;-71
2022/06/28 07:25:36;;;;;;;3.72;2.80;;;;;;;24.62;54.49;99473.66;5145968;28;20055;-71
2022/06/28 07:28:03;;;;;;;3.88;2.60;;;;;;;24.85;54.34;99473.81;5127625;28;20050;-72
2022/06/28 07:30:30;;;;;;;3.60;2.78;;;;;;;25.14;53.88;99465.09;5145916;28;20261;-72
2022/06/28 07:32:57;;;;;;;4.60;2.50;;;;;;;25.10;53.27;99474.63;5145976;28;20055;-72
2022/06/28 07:35:25;;;;;;;3.88;2.65;;;;;;;24.93;53.74;99492.75;5146028;28;20056;-72
2022/06/28 07:37:52;;;;;;;6.15;2.92;;;;;;;25.01;53.44;99484.63;5145610;27;20059;-72
2022/06/28 07:40:21;;;;;;;4.20;3.03;;;;;;;25.01;52.59;99468.38;5149307;27;20100;-71
2022/06/28 07:42:48;;;;;;;6.05;4.57;;;;;;;25.26;52.51;99475.41;5150042;27;20039;-72
2022/06/28 07:45:16;;;;;;;5.05;3.13;;;;;;;25.33;52.51;99469.31;5149419;27;20375;-71
2022/06/28 07:47:47;;;;;;;7.68;3.58;;;;;;;25.48;51.97;99468.38;5149492;27;20055;-71
2022/06/28 07:53:02;;;;;;;5.65;2.50;;;;;;;25.14;51.47;99383.75;5150347;27;20344;-71
2022/06/28 07:55:31;;;;;;;3.47;2.85;;;;;;;25.30;51.68;99424.34;5149440;27;20055;-72
2022/06/28 07:57:58;;;;;;;3.90;2.42;;;;;;;25.71;51.55;99456.72;5149828;27;20051;-72
2022/06/28 08:00:26;;;;;;;4.70;2.25;;;;;;;25.66;50.88;99459.97;5149569;27;20253;-72
2022/06/28 08:02:54;;;;;;;3.20;2.30;;;;;;;25.80;51.27;99464.63;5149138;27;20242;-72
2022/06/28 08:05:21;;;;;;;2.80;2.00;;;;;;;25.92;51.29;99465.91;5149594;27;20062;-72
2022/06/28 08:07:48;;;;;;;3.60;2.47;;;;;;;26.11;50.62;99450.19;5149269;27;20209;-72
2022/06/28 08:10:16;;;;;;;3.45;2.33;;;;;;;26.41;50.41;99442.97;5149027;27;20063;-72
2022/06/28 08:12:45;;;;;;;5.15;2.58;;;;;;;26.24;49.74;99447.69;5149273;27;20050;-71
2022/06/28 08:15:13;;;;;;;3.85;2.50;;;;;;;26.65;50.07;99425.59;5149257;27;20055;-72
2022/06/28 08:17:41;;;;;;;3.88;2.60;;;;;;;26.90;50.06;99426.19;5148969;27;20237;-72
2022/06/28 08:20:09;;;;;;;4.07;2.58;;;;;;;26.63;48.87;99409.47;5149357;27;20104;-72
2022/06/28 08:22:37;;;;;;;4.05;2.60;;;;;;;26.66;49.06;99440.88;5149219;27;20049;-72
2022/06/28 08:25:05;;;;;;;4.15;2.25;;;;;;;26.67;49.34;99428.97;5149202;27;20055;-72
2022/06/28 08:27:32;;;;;;;4.20;2.40;;;;;;;26.54;48.78;99426.88;5149288;27;20170;-72
2022/06/28 08:30:01;;;;;;;4.80;2.45;;;;;;;26.28;49.24;99402.00;5149034;27;20229;-72
2022/06/28 08:32:29;;;;;;;2.92;2.03;;;;;;;26.77;49.38;99414.09;5149229;27;20055;-72
2022/06/28 08:34:56;;;;;;;4.50;2.40;;;;;;;26.69;49.21;99407.88;5149084;27;20111;-72
2022/06/28 08:37:23;;;;;;;3.80;2.63;;;;;;;26.83;49.10;99416.06;5149094;27;20318;-71
2022/06/28 08:39:50;;;;;;;3.95;2.47;;;;;;;26.71;49.01;99403.97;5148981;27;20128;-72
2022/06/28 08:42:25;;;;;;;3.92;2.50;;;;;;;26.76;48.86;99403.41;5148438;27;20222;-72
2022/06/28 08:44:53;;;;;;;4.07;2.50;;;;;;;26.78;48.98;99404.91;5148667;27;20080;-71
2022/06/28 08:47:24;;;;;;;6.13;2.75;;;;;;;26.52;48.89;99364.56;5148707;27;20055;-72
2022/06/28 08:49:55;;;;;;;3.80;2.30;;;;;;;27.03;48.62;99400.00;5147943;27;20051;-72
2022/06/28 08:52:24;;;;;;;3.42;2.40;;;;;;;27.55;48.09;99403.59;5148985;27;20188;-72
2022/06/28 08:54:52;;;;;;;5.07;3.15;;;;;;;27.96;47.68;99391.09;5148942;27;20352;-72
2022/06/28 08:57:22;;;;;;;3.35;2.20;;;;;;;28.17;46.53;99395.69;5148704;27;20315;-72
2022/06/28 08:59:50;;;;;;;5.25;2.95;;;;;;;27.95;46.94;99359.44;5148524;27;20253;-72
2022/06/28 09:02:18;;;;;;;3.53;2.40;;;;;;;28.38;46.55;99395.63;5148020;27;20080;-72
2022/06/28 09:04:51;;;;;;;5.53;2.78;;;;;;;28.20;45.84;99403.47;5148567;27;20062;-72
2022/06/28 09:07:18;;;;;;;3.90;2.60;;;;;;;28.21;46.19;99407.03;5148541;27;20054;-72
2022/06/28 09:09:45;;;;;;;4.72;2.60;;;;;;;28.56;46.33;99395.16;5148192;27;20100;-72
2022/06/28 09:12:14;;;;;;;6.88;2.67;;;;;;;28.91;46.27;99403.34;5148287;27;20234;-72
2022/06/28 09:14:41;;;;;;;5.55;2.95;;;;;;;28.97;45.46;99406.13;5148322;27;20261;-72
2022/06/28 09:17:20;;;;;;;4.65;2.65;;;;;;;28.66;44.84;99411.16;5147713;27;20055;-72
2022/06/28 09:19:53;;;;;;;3.53;2.60;;;;;;;28.70;45.36;99412.47;5130311;27;20080;-72
2022/06/28 09:22:37;;;;;;;5.93;2.80;;;;;;;28.81;45.10;99414.63;5147930;27;20055;-72
2022/06/28 09:25:08;;;;;;;5.13;2.47;;;;;;;29.00;45.82;99416.63;5148195;27;20104;-72
2022/06/28 09:27:37;;;;;;;4.10;2.80;;;;;;;29.23;45.13;99399.13;5148156;27;20084;-72
2022/06/28 09:30:06;;;;;;;4.82;3.28;;;;;;;29.27;43.45;99416.78;5147749;27;20100;-72
2022/06/28 09:32:35;;;;;;;4.40;3.28;;;;;;;29.39;44.40;99407.81;5148041;27;20092;-72
2022/06/28 09:35:06;;;;;;;4.80;3.13;;;;;;;29.47;44.17;99414.97;5147605;27;20055;-72
2022/06/28 09:37:37;;;;;;;4.78;2.90;;;;;;;29.45;44.09;99419.78;5147526;27;20054;-72
2022/06/28 09:40:16;;;;;;;4.22;2.47;;;;;;;29.16;43.87;99426.38;5147197;27;20112;-73
2022/06/28 09:42:44;;;;;;;7.82;2.65;;;;;;;29.14;45.03;99414.84;5148084;27;20099;-73
2022/06/28 09:45:13;;;;;;;3.35;2.72;;;;;;;29.04;44.76;99387.09;5147674;27;20055;-73
2022/06/28 09:47:45;;;;;;;3.90;2.90;;;;;;;29.62;44.27;99421.13;5147795;27;20108;-73
2022/06/28 09:50:20;;;;;;;5.53;3.03;;;;;;;29.84;42.91;99420.97;5147606;27;20055;-73
2022/06/28 09:52:48;;;;;;;4.05;2.92;;;;;;;29.94;42.80;99405.84;5147491;27;20051;-73
2022/06/28 09:55:16;;;;;;;4.35;2.90;;;;;;;29.88;42.94;99405.84;5147581;27;20067;-73
2022/06/28 09:57:45;;;;;;;3.97;2.63;;;;;;;29.99;42.92;99410.69;5147498;27;20051;-73
2022/06/28 10:00:14;;;;;;;3.78;2.70;;;;;;;29.78;43.22;99414.44;5146985;27;20080;-73
2022/06/28 10:02:43;;;;;;;3.92;2.60;;;;;;;29.21;44.40;99420.31;5146778;27;20100;-73
2022/06/28 10:05:11;;;;;;;4.18;2.58;;;;;;;29.51;43.79;99421.69;5147542;27;20257;-73
2022/06/28 10:07:40;;;;;;;3.63;2.67;;;;;;;29.77;43.00;99423.69;5146931;27;20059;-73
2022/06/28 10:10:11;;;;;;;4.00;2.60;;;;;;;29.48;42.64;99418.53;5147001;27;20111;-73
2022/06/28 10:15:26;;;;;;;4.03;2.55;;;;;;;30.00;42.73;99409.66;5147203;27;20076;-73
2022/06/28 10:17:57;;;;;;;10.80;3.17;;;;;;;30.07;43.07;99402.31;5146798;27;20107;-73
2022/06/28 10:20:27;;;;;;;3.92;2.13;;;;;;;29.83;42.85;99392.81;5147063;27;20088;-73
2022/06/28 10:23:20;;;;;;;3.70;2.35;;;;;;;29.93;42.25;99393.25;5146898;27;20356;-73
2022/06/28 10:26:18;;;;;;;3.90;2.80;;;;;;;30.10;42.19;99388.22;5146850;27;20050;-73
2022/06/28 10:28:47;;;;;;;8.02;2.63;;;;;;;30.12;42.37;99382.53;5146988;27;20055;-73
2022/06/28 10:31:41;;;;;;;3.40;2.88;;;;;;;30.22;42.07;99374.81;5146901;27;20120;-73
2022/06/28 10:34:10;;;;;;;4.60;4.05;;;;;;;30.21;41.19;99367.69;5147263;27;20092;-73
2022/06/28 10:36:49;;;;;;;4.32;3.08;;;;;;;30.33;41.79;99366.81;5146702;27;20059;-73
2022/06/28 10:39:25;;;;;;;5.50;4.55;;;;;;;30.52;41.55;99369.75;5146754;27;20315;-73
2022/06/28 10:42:05;;;;;;;4.95;3.28;;;;;;;30.52;41.83;99358.81;5146707;27;20107;-74
2022/06/28 10:44:45;;;;;;;3.42;2.80;;;;;;;30.66;40.81;99374.97;5146561;27;20050;-72
2022/06/28 10:47:14;;;;;;;4.65;2.97;;;;;;;30.51;41.70;99343.47;5146684;27;20080;-74
2022/06/28 10:49:59;;;;;;;3.47;2.72;;;;;;;30.81;40.72;99365.72;5147188;27;20096;-72
2022/06/28 10:52:30;;;;;;;4.30;2.50;;;;;;;30.76;41.68;99360.03;5146771;27;20225;-73
2022/06/28 10:55:22;;;;;;;3.47;2.80;;;;;;;30.76;40.86;99357.31;5146829;27;20101;-73
2022/06/28 10:58:06;;;;;;;4.90;2.83;;;;;;;30.79;40.38;99348.66;5146784;27;20099;-73
2022/06/28 11:00:35;;;;;;;6.55;2.47;;;;;;;31.01;41.45;99341.00;5146552;27;20164;-73
2022/06/28 11:03:05;;;;;;;3.60;2.50;;;;;;;31.07;41.36;99323.72;5146191;27;20101;-73
2022/06/28 11:05:50;;;;;;;6.60;2.60;;;;;;;30.77;39.88;99290.59;5146399;27;20115;-72
2022/06/28 11:08:37;;;;;;;4.30;2.97;;;;;;;31.05;39.87;99332.16;5146040;27;20051;-73
2022/06/28 11:11:06;;;;;;;3.42;2.33;;;;;;;31.03;40.99;99338.91;5146718;27;20063;-73
2022/06/28 11:13:39;;;;;;;3.70;2.40;;;;;;;31.12;40.56;99341.16;5146296;27;20192;-73
2022/06/28 11:16:10;;;;;;;4.07;2.50;;;;;;;31.13;40.82;99345.59;5146519;27;20234;-73
2022/06/28 11:18:37;;;;;;;3.53;2.92;;;;;;;31.14;41.02;99335.47;5145756;28;20092;-73
2022/06/28 11:21:04;;;;;;;3.88;2.55;;;;;;;31.20;41.04;99335.44;5146106;28;20054;-73
2022/06/28 11:23:32;;;;;;;3.38;2.58;;;;;;;30.93;40.29;99290.94;5146150;28;20119;-73
2022/06/28 11:29:03;;;;;;;5.50;2.97;;;;;;;31.13;40.04;99331.06;5063563;28;20305;-73
2022/06/28 11:31:39;;;;;;;4.55;3.00;;;;;;;31.15;41.30;99327.06;5063330;28;20065;-73
2022/06/28 11:34:07;;;;;;;3.35;2.40;;;;;;;31.13;40.58;99325.59;5091073;28;20051;-73
2022/06/28 11:36:35;;;;;;;4.22;2.38;;;;;;;31.19;41.02;99321.97;5145826;28;20314;-73
2022/06/28 11:39:04;;;;;;;5.47;3.53;;;;;;;31.20;41.05;99329.13;5145731;28;20055;-74
2022/06/28 11:41:32;;;;;;;3.75;2.67;;;;;;;31.13;40.93;99334.63;5146213;28;20055;-73
2022/06/28 11:44:02;;;;;;;5.30;2.95;;;;;;;31.12;40.85;99329.38;5145831;28;20055;-73
2022/06/28 11:46:30;;;;;;;4.53;2.50;;;;;;;30.90;40.98;99296.00;5145954;28;20183;-73
2022/06/28 11:48:57;;;;;;;5.18;3.08;;;;;;;31.02;41.06;99315.31;5145911;28;20055;-73
2022/06/28 11:51:28;;;;;;;7.68;2.95;;;;;;;31.08;43.83;99312.56;5146215;28;20075;-74
2022/06/28 11:53:55;;;;;;;4.22;2.50;;;;;;;31.05;43.98;99304.78;5145672;28;20096;-74
2022/06/28 11:56:23;;;;;;;3.97;2.40;;;;;;;31.02;44.43;99299.75;5145754;28;20058;-73
2022/06/28 11:58:50;;;;;;;3.90;2.10;;;;;;;31.06;44.61;99294.69;5145814;28;20066;-74
2022/06/28 12:01:21;;;;;;;4.45;2.45;;;;;;;31.10;42.96;99302.22;5145841;28;20055;-74